Time;durP1;ratioP1;P1;durP2;ratioP2;P2;SDS_P1;SDS_P2;PMS_P1;PMS_P2;Temp;Humidity;BMP_temperature;BMP_pressure;BME280_temperature;BME280_humidity;BME280_pressure;Samples;Min_cycle;Max_cycle;Signal;HPM_P1;HPM_P2
2019/04/12 00:01:42;;;;;;;3.3;3;;;;;;;23.26;26.56152;1006.085;;;;
2019/04/12 00:04:03;;;;;;;3.3;3;;;;;;;23.25;26.44238;1006.041;;;;
2019/04/12 00:06:33;;;;;;;3.5;2.9;;;;;;;23.25;26.52539;1006.082;;;;
2019/04/12 00:08:58;;;;;;;8.9;3.1;;;;;;;23.27;26.51465;1006.042;;;;
2019/04/12 00:11:34;;;;;;;8.2;3.3;;;;;;;23.28;26.60938;1006.045;;;;
2019/04/12 00:14:02;;;;;;;4.2;3.2;;;;;;;23.26;26.62109;1006.034;;;;
2019/04/12 00:16:34;;;;;;;3.8;3.2;;;;;;;23.25;26.66699;1006.006;;;;
2019/04/12 00:19:02;;;;;;;4.7;3;;;;;;;23.25;26.64355;1006;;;;
2019/04/12 00:21:36;;;;;;;7.1;3.3;;;;;;;23.26;26.7627;1005.979;;;;
2019/04/12 00:24:03;;;;;;;6;3;;;;;;;23.24;26.74902;1005.947;;;;
2019/04/12 00:26:28;;;;;;;4.8;2.9;;;;;;;23.23;26.61914;1005.958;;;;
2019/04/12 00:28:59;;;;;;;4.3;3.5;;;;;;;23.23;26.60742;1006.013;;;;
2019/04/12 00:31:30;;;;;;;7.1;3.5;;;;;;;23.24;26.53711;1005.976;;;;
2019/04/12 00:34:01;;;;;;;5.1;3.3;;;;;;;23.23;26.59473;1005.96;;;;
2019/04/12 00:36:32;;;;;;;4.1;3.2;;;;;;;23.22;26.7002;1005.944;;;;
2019/04/12 00:39:02;;;;;;;4.4;3.2;;;;;;;23.24;26.57227;1006.002;;;;
2019/04/12 00:41:33;;;;;;;3.7;3.2;;;;;;;23.23;26.54785;1006.032;;;;
2019/04/12 00:44:04;;;;;;;4.2;3.2;;;;;;;23.23;26.58301;1006.009;;;;
2019/04/12 00:46:34;;;;;;;3.5;3.2;;;;;;;23.22;26.53516;1006.02;;;;
2019/04/12 00:49:06;;;;;;;8.2;3.5;;;;;;;23.22;26.48828;1006.012;;;;
2019/04/12 00:51:35;;;;;;;5.4;2.9;;;;;;;23.22;26.55859;1006.071;;;;
2019/04/12 00:54:06;;;;;;;4.5;2.9;;;;;;;23.2;26.47559;1006.074;;;;
2019/04/12 00:56:37;;;;;;;5.7;3.4;;;;;;;23.21;26.53516;1006.045;;;;
2019/04/12 00:59:08;;;;;;;4.2;3.1;;;;;;;23.23;26.54785;1006.083;;;;
2019/04/12 01:01:54;;;;;;;3.8;3.1;;;;;;;23.26;26.62012;1006.104;;;;
2019/04/12 01:04:20;;;;;;;4.1;3.3;;;;;;;23.27;26.60938;1006.12;;;;
2019/04/12 01:06:40;;;;;;;4.3;3.1;;;;;;;23.29;26.59863;1006.106;;;;
2019/04/12 01:09:11;;;;;;;5.2;3.3;;;;;;;23.27;26.62109;1006.101;;;;
2019/04/12 01:11:45;;;;;;;3.5;3.1;;;;;;;23.27;26.63281;1006.107;;;;
2019/04/12 01:14:18;;;;;;;3.4;3.1;;;;;;;23.26;26.63281;1006.075;;;;
2019/04/12 01:16:53;;;;;;;4.1;3.4;;;;;;;23.28;26.51563;1006.117;;;;
2019/04/12 01:19:21;;;;;;;3.4;3.1;;;;;;;23.28;26.58594;1006.127;;;;
2019/04/12 01:21:51;;;;;;;4.1;3.2;;;;;;;23.29;26.61035;1006.083;;;;
2019/04/12 01:24:25;;;;;;;5.2;3.1;;;;;;;23.28;26.60938;1006.058;;;;
2019/04/12 01:26:53;;;;;;;3.4;2.9;;;;;;;23.26;26.58594;1006.13;;;;
2019/04/12 01:29:23;;;;;;;3.8;3.2;;;;;;;23.26;26.5498;1006.09;;;;
2019/04/12 01:31:55;;;;;;;3.3;3;;;;;;;23.25;26.29004;1006.127;;;;
2019/04/12 01:34:26;;;;;;;3.5;3.2;;;;;;;23.26;26.31348;1006.094;;;;
2019/04/12 01:36:58;;;;;;;3.3;3;;;;;;;23.26;26.37305;1006.099;;;;
2019/04/12 01:39:29;;;;;;;3.6;2.9;;;;;;;23.29;26.55078;1006.111;;;;
2019/04/12 01:42:00;;;;;;;3.3;3;;;;;;;23.3;26.55176;1006.145;;;;
2019/04/12 01:44:30;;;;;;;3.4;2.9;;;;;;;23.3;26.5166;1006.145;;;;
2019/04/12 01:47:01;;;;;;;3.4;3.1;;;;;;;23.29;26.29102;1006.111;;;;
2019/04/12 01:49:31;;;;;;;4.2;3.5;;;;;;;23.28;26.24316;1006.15;;;;
2019/04/12 01:52:02;;;;;;;3.6;3;;;;;;;23.29;26.40918;1006.111;;;;
2019/04/12 01:54:32;;;;;;;3.4;2.9;;;;;;;23.28;26.4209;1006.09;;;;
2019/04/12 01:57:11;;;;;;;3.2;2.9;;;;;;;23.3;26.31543;1006.128;;;;
2019/04/12 01:59:35;;;;;;;3.9;3.5;;;;;;;23.29;26.33887;1006.147;;;;
2019/04/12 02:02:06;;;;;;;3.4;3.1;;;;;;;23.3;26.48047;1006.087;;;;
2019/04/12 02:04:36;;;;;;;3.6;3.3;;;;;;;23.29;26.45703;1006.083;;;;
2019/04/12 02:07:07;;;;;;;3.9;3.3;;;;;;;23.3;26.41016;1006.126;;;;
2019/04/12 02:09:38;;;;;;;3.3;3;;;;;;;23.3;26.45703;1006.059;;;;
2019/04/12 02:12:03;;;;;;;3.8;3.3;;;;;;;23.28;26.43262;1006.09;;;;
2019/04/12 02:14:29;;;;;;;3.6;3.3;;;;;;;23.3;26.38672;1006.036;;;;
2019/04/12 02:16:59;;;;;;;3.3;3;;;;;;;23.29;26.41016;1005.965;;;;
2019/04/12 02:19:29;;;;;;;4.1;3.3;;;;;;;23.27;26.47949;1006.064;;;;
2019/04/12 02:22:00;;;;;;;3.4;2.8;;;;;;;23.28;26.58691;1006.09;;;;
2019/04/12 02:24:31;;;;;;;3.2;2.9;;;;;;;23.25;26.63184;1005.982;;;;
2019/04/12 02:27:01;;;;;;;4.5;3.3;;;;;;;23.23;26.5127;1006.081;;;;
2019/04/12 02:29:32;;;;;;;3.8;3.4;;;;;;;23.21;26.38184;1006.049;;;;
2019/04/12 02:32:15;;;;;;;4.4;3.5;;;;;;;23.19;26.43945;1006.081;;;;
2019/04/12 02:34:33;;;;;;;3.6;3.1;;;;;;;23.19;26.43945;1006.073;;;;
2019/04/12 02:37:04;;;;;;;3.6;3.3;;;;;;;23.17;26.35449;1006.04;;;;
2019/04/12 02:39:34;;;;;;;3.3;3;;;;;;;23.15;26.31934;1005.979;;;;
2019/04/12 02:42:06;;;;;;;3.5;3.2;;;;;;;23.13;26.29395;1006.015;;;;
2019/04/12 02:44:37;;;;;;;3.8;3.4;;;;;;;23.12;26.25781;1006.049;;;;
2019/04/12 02:47:11;;;;;;;3.7;3.4;;;;;;;23.08;26.24414;1006.002;;;;
2019/04/12 02:49:49;;;;;;;3.6;3.3;;;;;;;23.07;26.18359;1005.978;;;;
2019/04/12 02:52:45;;;;;;;3.6;3.3;;;;;;;23.05;26.22949;1006.051;;;;
2019/04/12 02:54:55;;;;;;;3.5;3.2;;;;;;;23.02;26.12207;1006.024;;;;
2019/04/12 02:57:17;;;;;;;3.8;3.5;;;;;;;23.02;26.13379;1006.043;;;;
2019/04/12 02:59:41;;;;;;;3.8;3.5;;;;;;;23;26.12109;1006.043;;;;
2019/04/12 03:02:14;;;;;;;3.7;3.4;;;;;;;22.98;26.0957;1006.075;;;;
2019/04/12 03:04:42;;;;;;;4;3.2;;;;;;;22.97;26.06055;1006.029;;;;
2019/04/12 03:07:13;;;;;;;3.5;3.2;;;;;;;22.95;26.07129;1006.02;;;;
2019/04/12 03:09:44;;;;;;;3.9;3.5;;;;;;;22.94;26.03516;1006.036;;;;
2019/04/12 03:12:14;;;;;;;3.8;3.4;;;;;;;22.93;25.99902;1006.088;;;;
2019/04/12 03:14:46;;;;;;;3.8;3.5;;;;;;;22.97;25.83496;1006.141;;;;
2019/04/12 03:17:16;;;;;;;3.7;3.4;;;;;;;22.96;25.89453;1006.136;;;;
2019/04/12 03:19:46;;;;;;;3.4;3.1;;;;;;;22.93;26.01074;1006.097;;;;
2019/04/12 03:22:17;;;;;;;3.6;3.3;;;;;;;22.91;26.03223;1006.098;;;;
2019/04/12 03:24:48;;;;;;;3.6;3.3;;;;;;;22.88;26.10254;1006.126;;;;
2019/04/12 03:27:19;;;;;;;3.8;3.4;;;;;;;22.88;26.05469;1006.122;;;;
2019/04/12 03:29:49;;;;;;;3.8;3.5;;;;;;;22.87;26.03027;1006.061;;;;
2019/04/12 03:32:20;;;;;;;4;3.5;;;;;;;22.87;26.06641;1006.11;;;;
2019/04/12 03:34:51;;;;;;;3.9;3.6;;;;;;;22.87;26.04297;1006.16;;;;
2019/04/12 03:37:21;;;;;;;4;3.6;;;;;;;22.87;26.05371;1006.143;;;;
2019/04/12 03:39:52;;;;;;;3.7;3.4;;;;;;;22.85;26.07715;1006.164;;;;
2019/04/12 03:42:23;;;;;;;4;3.4;;;;;;;22.85;26.04102;1006.15;;;;
2019/04/12 03:44:53;;;;;;;3.7;3.4;;;;;;;22.85;26.0293;1006.132;;;;
2019/04/12 03:47:25;;;;;;;3.7;3.4;;;;;;;22.84;26.04102;1006.093;;;;
2019/04/12 03:49:56;;;;;;;3.5;3.2;;;;;;;22.84;26.0166;1006.057;;;;
2019/04/12 03:52:25;;;;;;;3.3;3.1;;;;;;;22.84;26.05176;1006.016;;;;
2019/04/12 03:54:56;;;;;;;3.9;3.6;;;;;;;22.83;26.0166;1006.078;;;;
2019/04/12 03:57:26;;;;;;;3.9;3.6;;;;;;;22.82;26.00488;1006.074;;;;
2019/04/12 03:59:57;;;;;;;3.4;3.1;;;;;;;22.82;26.00488;1006.138;;;;
2019/04/12 04:02:36;;;;;;;3.9;3.5;;;;;;;22.81;26.01563;1006.085;;;;
2019/04/12 04:05:07;;;;;;;4.6;3.9;;;;;;;22.81;25.96875;1006.085;;;;
2019/04/12 04:07:38;;;;;;;3.8;3.5;;;;;;;22.81;25.96777;1006.136;;;;
2019/04/12 04:10:10;;;;;;;3.6;3.3;;;;;;;22.8;25.96777;1006.07;;;;
2019/04/12 04:12:40;;;;;;;3.9;3.6;;;;;;;22.79;25.99023;1006.127;;;;
2019/04/12 04:15:12;;;;;;;3.6;3.3;;;;;;;22.78;25.9541;1006.079;;;;
2019/04/12 04:17:55;;;;;;;4;3.6;;;;;;;22.78;25.93066;1006.069;;;;
2019/04/12 04:20:32;;;;;;;3.8;3.5;;;;;;;22.78;25.93066;1006.128;;;;
2019/04/12 04:22:45;;;;;;;3.7;3.4;;;;;;;22.78;25.91895;1006.146;;;;
2019/04/12 04:25:23;;;;;;;3.7;3.4;;;;;;;22.78;25.90723;1006.151;;;;
2019/04/12 04:30:35;;;;;;;3.6;3.3;;;;;;;22.77;25.90723;1006.075;;;;
2019/04/12 04:32:54;;;;;;;3.4;3.1;;;;;;;22.77;25.90723;1006.116;;;;
2019/04/12 04:35:21;;;;;;;3.7;3.4;;;;;;;22.78;25.89551;1006.091;;;;
2019/04/12 04:38:13;;;;;;;3.8;3.5;;;;;;;22.77;25.89551;1006.102;;;;
2019/04/12 04:40:23;;;;;;;3.6;3.3;;;;;;;22.79;25.87305;1006.121;;;;
2019/04/12 04:42:52;;;;;;;3.9;3.6;;;;;;;22.8;25.86133;1006.123;;;;
2019/04/12 04:45:23;;;;;;;3.9;3.5;;;;;;;22.81;25.82617;1006.118;;;;
2019/04/12 04:47:54;;;;;;;3.9;3.6;;;;;;;22.8;25.86133;1006.166;;;;
2019/04/12 04:50:25;;;;;;;3.8;3.5;;;;;;;22.79;25.84863;1006.199;;;;
2019/04/12 04:52:58;;;;;;;3.7;3.4;;;;;;;22.8;25.83789;1006.206;;;;
2019/04/12 04:55:25;;;;;;;3.6;3.3;;;;;;;22.81;25.82715;1006.208;;;;
2019/04/12 04:57:56;;;;;;;3.6;3.3;;;;;;;22.8;25.82617;1006.207;;;;
2019/04/12 05:00:27;;;;;;;3.7;3.4;;;;;;;22.81;25.80273;1006.255;;;;
2019/04/12 05:02:58;;;;;;;3.8;3.5;;;;;;;22.81;25.79102;1006.286;;;;
2019/04/12 05:05:30;;;;;;;4.1;3.7;;;;;;;22.83;25.74512;1006.237;;;;
2019/04/12 05:07:59;;;;;;;3.6;3.3;;;;;;;22.83;25.78027;1006.287;;;;
2019/04/12 05:10:29;;;;;;;4;3.7;;;;;;;22.81;25.81445;1006.292;;;;
2019/04/12 05:13:02;;;;;;;3.7;3.4;;;;;;;22.77;25.90723;1006.376;;;;
2019/04/12 05:15:31;;;;;;;3.9;3.5;;;;;;;22.78;25.87109;1006.329;;;;
2019/04/12 05:18:01;;;;;;;3.7;3.4;;;;;;;22.79;25.87207;1006.459;;;;
2019/04/12 05:20:33;;;;;;;3.6;3.3;;;;;;;22.8;25.88477;1006.426;;;;
2019/04/12 05:23:04;;;;;;;3.9;3.6;;;;;;;22.81;25.85059;1006.427;;;;
2019/04/12 05:25:37;;;;;;;3.6;3.3;;;;;;;22.85;25.82813;1006.439;;;;
2019/04/12 05:28:04;;;;;;;3.9;3.6;;;;;;;22.87;25.83008;1006.452;;;;
2019/04/12 05:30:35;;;;;;;4.1;3.7;;;;;;;22.89;25.78418;1006.457;;;;
2019/04/12 05:33:06;;;;;;;3.5;3.2;;;;;;;22.9;25.74902;1006.436;;;;
2019/04/12 05:35:36;;;;;;;3.9;3.5;;;;;;;22.94;25.60938;1006.497;;;;
2019/04/12 05:38:07;;;;;;;3.6;3.3;;;;;;;22.97;25.58789;1006.422;;;;
2019/04/12 05:40:37;;;;;;;4.2;3.8;;;;;;;23;25.73145;1006.449;;;;
2019/04/12 05:43:10;;;;;;;4.7;3.8;;;;;;;23.02;25.60254;1006.462;;;;
2019/04/12 05:45:49;;;;;;;3.8;3.4;;;;;;;23.04;25.58008;1006.518;;;;
2019/04/12 05:48:10;;;;;;;3.8;3.4;;;;;;;23.05;25.56836;1006.507;;;;
2019/04/12 05:50:38;;;;;;;3.8;3.5;;;;;;;23.07;25.53418;1006.516;;;;
2019/04/12 05:53:06;;;;;;;3.7;3.4;;;;;;;23.12;25.50195;1006.601;;;;
2019/04/12 05:55:39;;;;;;;4.1;3.8;;;;;;;23.17;25.46875;1006.596;;;;
2019/04/12 05:58:32;;;;;;;3.9;3.5;;;;;;;23.18;25.4707;1006.548;;;;
2019/04/12 06:01:24;;;;;;;4.1;3.7;;;;;;;23.21;25.41309;1006.506;;;;
2019/04/12 06:03:08;;;;;;;4.1;3.7;;;;;;;23.29;25.44141;1006.503;;;;
2019/04/12 06:05:38;;;;;;;4.3;3.5;;;;;;;23.31;25.44238;1006.457;;;;
2019/04/12 06:08:10;;;;;;;3.9;3.6;;;;;;;23.34;25.43164;1006.492;;;;
2019/04/12 06:10:41;;;;;;;4;3.6;;;;;;;23.34;25.53809;1006.484;;;;
2019/04/12 06:13:12;;;;;;;4.7;4.3;;;;;;;23.37;25.42188;1006.5;;;;
2019/04/12 06:15:44;;;;;;;4.7;4;;;;;;;23.41;25.38867;1006.502;;;;
2019/04/12 06:18:12;;;;;;;4.2;3.8;;;;;;;23.43;25.41309;1006.538;;;;
2019/04/12 06:20:57;;;;;;;4.6;4.1;;;;;;;23.51;25.34668;1006.466;;;;
2019/04/12 06:23:12;;;;;;;4;3.6;;;;;;;23.59;25.22168;1006.506;;;;
2019/04/12 06:25:49;;;;;;;4.5;4.1;;;;;;;23.66;25.1543;1006.509;;;;
2019/04/12 06:28:14;;;;;;;4.4;4;;;;;;;23.8;25.11523;1006.48;;;;
2019/04/12 06:30:47;;;;;;;4.7;4.3;;;;;;;23.87;25.03516;1006.503;;;;
2019/04/12 06:33:15;;;;;;;4.5;4.1;;;;;;;23.9;24.71777;1006.556;;;;
2019/04/12 06:35:45;;;;;;;5;4.5;;;;;;;23.9;24.76563;1006.536;;;;
2019/04/12 06:38:16;;;;;;;6.2;4.6;;;;;;;23.91;24.64746;1006.472;;;;
2019/04/12 06:40:48;;;;;;;5.9;4.1;;;;;;;23.9;24.5166;1006.46;;;;
2019/04/12 06:43:19;;;;;;;4.9;4.4;;;;;;;23.93;24.45996;1006.499;;;;
2019/04/12 06:45:49;;;;;;;5.2;4.7;;;;;;;23.91;24.22168;1006.517;;;;
2019/04/12 06:48:19;;;;;;;4.7;4.3;;;;;;;23.9;24.10352;1006.482;;;;
2019/04/12 06:50:52;;;;;;;5.1;4.6;;;;;;;23.93;24.02148;1006.403;;;;
2019/04/12 06:53:20;;;;;;;4.8;4.3;;;;;;;24.08;23.70996;1006.426;;;;
2019/04/12 06:56:07;;;;;;;5.1;4.6;;;;;;;24.11;23.67676;1006.347;;;;
2019/04/12 06:58:22;;;;;;;4.5;4.1;;;;;;;24.15;23.54785;1006.352;;;;
2019/04/12 07:01:02;;;;;;;4.5;4.1;;;;;;;24.13;23.54688;1006.393;;;;
2019/04/12 07:06:01;;;;;;;5.3;4.5;;;;;;;24.21;23.08984;1006.288;;;;
2019/04/12 07:08:33;;;;;;;4.9;4.4;;;;;;;24.23;23.11426;1006.293;;;;
2019/04/12 07:11:03;;;;;;;5.1;4.5;;;;;;;24.26;22.83105;1006.316;;;;
2019/04/12 07:13:34;;;;;;;5.1;4.3;;;;;;;24.25;22.7832;1006.286;;;;
2019/04/12 07:16:05;;;;;;;4.9;4.4;;;;;;;24.33;22.7168;1006.306;;;;
2019/04/12 07:18:33;;;;;;;5.7;4.3;;;;;;;24.33;22.59863;1006.386;;;;
2019/04/12 07:21:05;;;;;;;4.7;4.2;;;;;;;24.41;22.36523;1006.333;;;;
2019/04/12 07:23:37;;;;;;;5;4.5;;;;;;;24.4;22.15137;1006.349;;;;
2019/04/12 07:26:07;;;;;;;4.9;4.4;;;;;;;24.38;22.08008;1006.34;;;;
2019/04/12 07:28:37;;;;;;;4.7;4.2;;;;;;;24.46;22.08301;1006.338;;;;
2019/04/12 07:31:08;;;;;;;4.5;4.1;;;;;;;24.54;21.99219;1006.334;;;;
2019/04/12 07:33:39;;;;;;;5;4.5;;;;;;;24.55;21.75684;1006.372;;;;
2019/04/12 07:36:10;;;;;;;5.2;4.7;;;;;;;24.64;21.6416;1006.355;;;;
2019/04/12 07:38:41;;;;;;;4.9;4.1;;;;;;;24.78;21.2334;1006.385;;;;
2019/04/12 07:41:11;;;;;;;4.6;4.2;;;;;;;25.02;20.80664;1006.401;;;;
2019/04/12 07:43:43;;;;;;;5.8;4.1;;;;;;;25.16;20.65918;1006.384;;;;
2019/04/12 07:46:11;;;;;;;4.5;4.1;;;;;;;25.04;20.79492;1006.416;;;;
2019/04/12 07:48:44;;;;;;;4.5;4.1;;;;;;;24.82;21.08203;1006.37;;;;
2019/04/12 07:52:17;;;;;;;4.9;4.4;;;;;;;24.77;20.94922;1006.371;;;;
2019/04/12 07:53:52;;;;;;;4.5;4.1;;;;;;;24.72;21.05273;1006.429;;;;
2019/04/12 07:56:19;;;;;;;5;4.5;;;;;;;24.96;20.66113;1006.373;;;;
2019/04/12 08:06:31;;;;;;;5;4.5;;;;;;;24.92;20.31543;1006.359;;;;
2019/04/12 08:08:55;;;;;;;4.9;4.4;;;;;;;25.91;19.35059;1006.392;;;;
2019/04/12 08:11:27;;;;;;;4.8;4.4;;;;;;;25.54;19.5;1006.369;;;;
2019/04/12 08:13:57;;;;;;;4.9;4.5;;;;;;;25.12;20.09961;1006.416;;;;
2019/04/12 08:16:29;;;;;;;5;4.4;;;;;;;24.93;20.24512;1006.375;;;;
2019/04/12 08:19:00;;;;;;;4.8;4.4;;;;;;;25.14;20.04102;1006.389;;;;
2019/04/12 08:21:28;;;;;;;4.7;4.2;;;;;;;25.66;19.32715;1006.457;;;;
2019/04/12 08:24:00;;;;;;;5.5;4.6;;;;;;;25.23;19.89063;1006.431;;;;
2019/04/12 08:26:31;;;;;;;5;4.4;;;;;;;25.44;19.63867;1006.399;;;;
2019/04/12 08:29:01;;;;;;;4.7;4.2;;;;;;;25.63;19.34961;1006.394;;;;
2019/04/12 08:31:31;;;;;;;4.7;4.2;;;;;;;26.47;18.66016;1006.44;;;;
2019/04/12 08:34:03;;;;;;;4.7;4.3;;;;;;;26.4;18.58594;1006.364;;;;
2019/04/12 08:36:35;;;;;;;4.5;4.1;;;;;;;25.9;19.1123;1006.391;;;;
2019/04/12 08:39:05;;;;;;;5.3;4.3;;;;;;;25.78;19.14258;1006.421;;;;
2019/04/12 08:41:36;;;;;;;5.5;4.4;;;;;;;25.57;19.39453;1006.435;;;;
2019/04/12 08:44:07;;;;;;;4.2;3.9;;;;;;;25.76;19.09375;1006.398;;;;
2019/04/12 08:46:39;;;;;;;4.8;4.3;;;;;;;25.82;19.02539;1006.468;;;;
2019/04/12 08:49:09;;;;;;;4.7;4.2;;;;;;;26.4;18.37109;1006.497;;;;
2019/04/12 08:51:41;;;;;;;5.4;4.3;;;;;;;26.54;18.28223;1006.425;;;;
2019/04/12 08:54:11;;;;;;;4.5;4.1;;;;;;;26.3;18.46289;1006.385;;;;
2019/04/12 08:56:43;;;;;;;5.2;4.3;;;;;;;26.05;18.73828;1006.404;;;;
2019/04/12 08:59:12;;;;;;;5.1;4.3;;;;;;;26.86;18.02148;1006.363;;;;
2019/04/12 09:01:43;;;;;;;5.6;4.1;;;;;;;27.18;17.55762;1006.38;;;;
2019/04/12 09:04:13;;;;;;;4.5;4.1;;;;;;;26.32;18.38086;1006.5;;;;
2019/04/12 09:06:44;;;;;;;4.4;4;;;;;;;25.98;18.77051;1006.367;;;;
2019/04/12 09:09:17;;;;;;;4.6;4.2;;;;;;;25.71;19.10352;1006.523;;;;
2019/04/12 09:11:45;;;;;;;5;4.5;;;;;;;25.66;19.18555;1006.406;;;;
2019/04/12 09:14:15;;;;;;;4.7;4.2;;;;;;;25.57;19.16895;1006.444;;;;
2019/04/12 09:16:46;;;;;;;4.6;4.2;;;;;;;25.48;19.2959;1006.445;;;;
2019/04/12 09:19:28;;;;;;;4.3;3.9;;;;;;;25.5;19.13086;1006.445;;;;
2019/04/12 09:22:36;;;;;;;5;4.5;;;;;;;25.47;19.17676;1006.42;;;;
2019/04/12 09:24:18;;;;;;;4.5;4.1;;;;;;;25.36;19.2666;1006.384;;;;
2019/04/12 09:26:43;;;;;;;5.2;4.6;;;;;;;25.34;19.43164;1006.351;;;;
2019/04/12 09:29:15;;;;;;;5.4;4.7;;;;;;;25.32;19.30078;1006.337;;;;
2019/04/12 09:31:43;;;;;;;5.1;4.3;;;;;;;25.24;19.46387;1006.331;;;;
2019/04/12 09:34:08;;;;;;;6.1;4.6;;;;;;;25.28;19.47754;1006.264;;;;
2019/04/12 09:36:40;;;;;;;7.2;4.6;;;;;;;25.23;19.48633;1006.252;;;;
2019/04/12 09:39:09;;;;;;;4.4;4;;;;;;;25.2;19.56836;1006.29;;;;
2019/04/12 09:41:40;;;;;;;4.9;4.4;;;;;;;25.19;19.5918;1006.246;;;;
2019/04/12 09:44:11;;;;;;;4.9;4.3;;;;;;;25.17;19.49609;1006.351;;;;
2019/04/12 09:46:40;;;;;;;4.5;4.1;;;;;;;25.19;19.53223;1006.301;;;;
2019/04/12 09:49:13;;;;;;;4.5;4.1;;;;;;;25.21;19.43848;1006.3;;;;
2019/04/12 09:51:43;;;;;;;5.5;4.3;;;;;;;25.22;19.33203;1006.272;;;;
2019/04/12 09:54:15;;;;;;;5;4.3;;;;;;;25.14;19.50684;1006.261;;;;
2019/04/12 09:56:44;;;;;;;4.8;4.3;;;;;;;25.16;19.43652;1006.279;;;;
2019/04/12 09:59:15;;;;;;;5.8;4.2;;;;;;;25.11;19.51758;1006.203;;;;
2019/04/12 10:01:45;;;;;;;4.6;4.1;;;;;;;25.09;19.55176;1006.281;;;;
2019/04/12 10:04:18;;;;;;;5.9;4.2;;;;;;;25.07;19.53906;1006.24;;;;
2019/04/12 10:06:47;;;;;;;5;4;;;;;;;25.08;19.52832;1006.241;;;;
2019/04/12 10:09:17;;;;;;;5.1;4.5;;;;;;;25.07;19.53906;1006.294;;;;
2019/04/12 10:11:48;;;;;;;4.5;4.1;;;;;;;25.08;19.56348;1006.237;;;;
2019/04/12 10:14:19;;;;;;;4.3;3.9;;;;;;;25.04;19.59766;1006.218;;;;
2019/04/12 10:16:49;;;;;;;4.7;4.2;;;;;;;25.02;19.62012;1006.256;;;;
2019/04/12 10:19:21;;;;;;;5;4.4;;;;;;;24.97;19.68848;1006.161;;;;
2019/04/12 10:21:50;;;;;;;4.9;4.4;;;;;;;24.95;19.67676;1006.168;;;;
2019/04/12 10:24:21;;;;;;;4.6;4.2;;;;;;;24.98;19.78418;1006.191;;;;
2019/04/12 10:26:52;;;;;;;5.3;4;;;;;;;24.97;20.0332;1006.161;;;;
2019/04/12 10:29:22;;;;;;;4.4;4;;;;;;;24.96;20.03223;1006.131;;;;
2019/04/12 10:31:54;;;;;;;4.8;4.3;;;;;;;24.96;19.97363;1006.145;;;;
2019/04/12 10:34:24;;;;;;;5.4;4.1;;;;;;;24.97;20.35352;1006.142;;;;
2019/04/12 10:36:55;;;;;;;5.5;4.3;;;;;;;24.94;20.20996;1006.162;;;;
2019/04/12 10:39:38;;;;;;;4.4;4;;;;;;;24.92;20.17285;1006.157;;;;
2019/04/12 10:41:53;;;;;;;4.8;4.1;;;;;;;24.91;20.10156;1006.082;;;;
2019/04/12 10:44:30;;;;;;;5.6;4.3;;;;;;;24.89;20.06543;1006.036;;;;
2019/04/12 10:46:58;;;;;;;4.7;4.2;;;;;;;24.85;20.03906;1006.057;;;;
2019/04/12 10:49:46;;;;;;;5.3;4.1;;;;;;;24.86;20.23047;1005.936;;;;
2019/04/12 10:52:03;;;;;;;5;4.2;;;;;;;24.88;20.1123;1005.947;;;;
2019/04/12 10:54:34;;;;;;;4.8;4.3;;;;;;;24.87;20.1123;1005.929;;;;
2019/04/12 10:56:48;;;;;;;5.9;4.2;;;;;;;24.81;20.25195;1005.873;;;;
2019/04/12 10:59:23;;;;;;;5.9;4.4;;;;;;;24.77;20.29688;1005.838;;;;
2019/04/12 11:01:50;;;;;;;4.5;4.1;;;;;;;24.73;20.35449;1005.845;;;;
2019/04/12 11:04:20;;;;;;;5.5;4.3;;;;;;;24.72;20.33008;1005.861;;;;
2019/04/12 11:06:50;;;;;;;4.8;4.4;;;;;;;24.68;20.39941;1005.724;;;;
2019/04/12 11:09:20;;;;;;;4.1;3.7;;;;;;;24.64;20.34961;1005.755;;;;
2019/04/12 11:11:52;;;;;;;6.5;4.4;;;;;;;24.62;20.38477;1005.732;;;;
2019/04/12 11:14:22;;;;;;;4.7;4.3;;;;;;;24.59;20.33594;1005.715;;;;
2019/04/12 11:16:53;;;;;;;5.2;4.4;;;;;;;24.56;20.28711;1005.685;;;;
2019/04/12 11:19:23;;;;;;;6.4;4.4;;;;;;;24.51;20.20215;1005.648;;;;
2019/04/12 11:21:55;;;;;;;5.6;4.1;;;;;;;24.54;20.19141;1005.625;;;;
2019/04/12 11:24:25;;;;;;;4.9;4.4;;;;;;;24.56;20.2041;1005.606;;;;
2019/04/12 11:26:56;;;;;;;5.8;4.2;;;;;;;24.56;20.40625;1005.565;;;;
2019/04/12 11:29:26;;;;;;;4.9;3.9;;;;;;;24.52;20.47559;1005.541;;;;
2019/04/12 11:31:57;;;;;;;6.1;4.3;;;;;;;24.47;20.42578;1005.515;;;;
2019/04/12 11:34:27;;;;;;;5.6;4.3;;;;;;;24.46;20.31836;1005.605;;;;
2019/04/12 11:36:58;;;;;;;5;4.2;;;;;;;24.44;20.41211;1005.504;;;;
2019/04/12 11:39:29;;;;;;;5;4.5;;;;;;;24.39;20.39844;1005.542;;;;
2019/04/12 11:42:00;;;;;;;4.8;4.2;;;;;;;24.41;20.42285;1005.493;;;;
2019/04/12 11:44:30;;;;;;;4.5;4.1;;;;;;;24.43;20.53027;1005.505;;;;
2019/04/12 11:47:01;;;;;;;5;4.5;;;;;;;24.41;20.51758;1005.493;;;;
2019/04/12 11:49:32;;;;;;;4.6;4.2;;;;;;;24.39;20.48145;1005.468;;;;
2019/04/12 11:52:03;;;;;;;4.5;4.1;;;;;;;24.39;20.30371;1005.482;;;;
2019/04/12 11:54:33;;;;;;;4.6;4.2;;;;;;;24.39;20.38672;1005.482;;;;
2019/04/12 11:57:04;;;;;;;5.6;4.3;;;;;;;24.36;20.51465;1005.408;;;;
2019/04/12 11:59:34;;;;;;;4.4;4;;;;;;;24.35;20.52637;1005.537;;;;
2019/04/12 12:02:11;;;;;;;4.9;4.4;;;;;;;24.33;20.53711;1005.45;;;;
2019/04/12 12:04:57;;;;;;;4.3;3.9;;;;;;;24.31;20.5957;1005.468;;;;
2019/04/12 12:09:39;;;;;;;5.4;4.5;;;;;;;24.29;20.68945;1005.422;;;;
2019/04/12 12:12:19;;;;;;;5.1;4.4;;;;;;;24.28;20.77148;1005.388;;;;
2019/04/12 12:14:41;;;;;;;4.8;4.2;;;;;;;24.26;20.86621;1005.409;;;;
2019/04/12 12:17:11;;;;;;;6.3;4.4;;;;;;;24.26;20.98438;1005.286;;;;
2019/04/12 12:19:37;;;;;;;5.4;4.5;;;;;;;24.25;20.87695;1005.307;;;;
2019/04/12 12:22:08;;;;;;;4.6;4.2;;;;;;;24.23;20.98242;1005.353;;;;
2019/04/12 12:24:39;;;;;;;4.9;4.4;;;;;;;24.22;21.01758;1005.385;;;;
2019/04/12 12:27:09;;;;;;;5.1;4.5;;;;;;;24.22;21.04102;1005.442;;;;
2019/04/12 12:29:42;;;;;;;5;4.2;;;;;;;24.19;21.00488;1005.425;;;;
2019/04/12 12:32:10;;;;;;;5.4;4.6;;;;;;;24.2;21.22949;1005.3;;;;
2019/04/12 12:34:41;;;;;;;4.3;3.9;;;;;;;24.19;21.26563;1005.38;;;;
2019/04/12 12:37:12;;;;;;;4.8;4.3;;;;;;;24.21;21.41992;1005.43;;;;
2019/04/12 12:39:43;;;;;;;6;4.2;;;;;;;24.19;21.50195;1005.302;;;;
2019/04/12 12:42:13;;;;;;;4.4;4;;;;;;;24.18;21.57227;1005.344;;;;
2019/04/12 12:44:44;;;;;;;5;4.2;;;;;;;24.18;21.75;1005.344;;;;
2019/04/12 12:47:15;;;;;;;5.5;4;;;;;;;24.19;21.99902;1005.323;;;;
2019/04/12 12:49:45;;;;;;;5.1;4.5;;;;;;;24.21;22.30762;1005.234;;;;
2019/04/12 12:52:18;;;;;;;5.2;4.1;;;;;;;24.23;22.37988;1005.225;;;;
2019/04/12 12:54:47;;;;;;;4.4;4;;;;;;;24.21;22.5332;1005.287;;;;
2019/04/12 12:57:18;;;;;;;5.5;4.1;;;;;;;24.21;22.5332;1005.197;;;;
2019/04/12 12:59:50;;;;;;;4.8;4;;;;;;;24.23;22.47461;1005.206;;;;
2019/04/12 13:02:19;;;;;;;5.4;4.5;;;;;;;24.23;22.55762;1005.178;;;;
2019/04/12 13:04:55;;;;;;;5.9;4.3;;;;;;;24.23;22.5459;1005.068;;;;
2019/04/12 13:07:24;;;;;;;5.4;4.3;;;;;;;24.25;22.67676;1005.12;;;;
2019/04/12 13:09:55;;;;;;;6.1;4.5;;;;;;;24.26;22.67773;1005.109;;;;
2019/04/12 13:12:26;;;;;;;6.2;4.3;;;;;;;24.27;22.63086;1005.184;;;;
2019/04/12 13:14:56;;;;;;;5.6;4.4;;;;;;;24.28;22.53711;1005.071;;;;
2019/04/12 13:17:29;;;;;;;4.7;4.1;;;;;;;24.27;22.5127;1005.051;;;;
2019/04/12 13:20:01;;;;;;;4.6;4.1;;;;;;;24.25;22.54688;1005.019;;;;
2019/04/12 13:22:28;;;;;;;5.4;4.3;;;;;;;24.26;22.5;1005.007;;;;
2019/04/12 13:24:59;;;;;;;5.6;4.4;;;;;;;24.26;22.59473;1004.957;;;;
2019/04/12 13:27:29;;;;;;;5.3;4.6;;;;;;;24.26;22.68945;1004.902;;;;
2019/04/12 13:30:04;;;;;;;4.6;4.2;;;;;;;24.26;22.66602;1004.958;;;;
2019/04/12 13:32:49;;;;;;;5;4.4;;;;;;;24.26;22.71289;1004.962;;;;
2019/04/12 13:35:31;;;;;;;4.6;4.2;;;;;;;24.26;22.60645;1004.939;;;;
2019/04/12 13:37:45;;;;;;;4.7;4.3;;;;;;;24.28;22.63184;1004.92;;;;
2019/04/12 13:42:46;;;;;;;5.8;4.2;;;;;;;24.29;22.58496;1004.938;;;;
2019/04/12 13:45:19;;;;;;;4.7;4.3;;;;;;;24.29;22.57227;1004.919;;;;
2019/04/12 13:47:44;;;;;;;4.7;4.3;;;;;;;24.3;22.5498;1004.876;;;;
2019/04/12 13:50:17;;;;;;;5.9;5;;;;;;;24.28;22.56055;1004.875;;;;
2019/04/12 13:52:46;;;;;;;5.3;4.8;;;;;;;24.26;22.5;1004.82;;;;
2019/04/12 13:55:17;;;;;;;4.6;4.2;;;;;;;24.27;22.55957;1004.8;;;;
2019/04/12 13:57:48;;;;;;;6.3;4.7;;;;;;;24.28;22.57129;1004.912;;;;
2019/04/12 14:00:20;;;;;;;4.8;4.4;;;;;;;24.29;22.57227;1004.891;;;;
2019/04/12 14:02:49;;;;;;;5.1;4.6;;;;;;;24.3;22.58496;1004.876;;;;
2019/04/12 14:05:20;;;;;;;5.3;4.5;;;;;;;24.32;22.62109;1004.853;;;;
2019/04/12 14:07:50;;;;;;;5.2;4.7;;;;;;;24.3;22.58496;1004.852;;;;
2019/04/12 14:10:20;;;;;;;5.3;4.7;;;;;;;24.3;22.71484;1004.862;;;;
2019/04/12 14:12:52;;;;;;;4.4;4;;;;;;;24.3;22.70313;1004.793;;;;
2019/04/12 14:15:22;;;;;;;5.1;4.6;;;;;;;24.29;22.69141;1004.809;;;;
2019/04/12 14:17:53;;;;;;;5;4.5;;;;;;;24.27;22.71387;1004.832;;;;
2019/04/12 14:20:23;;;;;;;5.2;4.6;;;;;;;24.27;22.78516;1004.832;;;;
2019/04/12 14:22:56;;;;;;;5.3;4.5;;;;;;;24.24;22.80762;1004.811;;;;
2019/04/12 14:25:25;;;;;;;5.2;4.4;;;;;;;24.23;22.86523;1004.827;;;;
2019/04/12 14:27:55;;;;;;;5.6;5;;;;;;;24.21;22.81738;1004.877;;;;
2019/04/12 14:30:30;;;;;;;4.7;4.3;;;;;;;24.2;22.80469;1004.805;;;;
2019/04/12 14:33:03;;;;;;;5.2;4.7;;;;;;;24.21;22.6875;1004.835;;;;
2019/04/12 14:35:43;;;;;;;5.4;4.4;;;;;;;24.23;22.86523;1004.835;;;;
2019/04/12 14:38:00;;;;;;;4.9;4.4;;;;;;;24.22;22.93652;1004.892;;;;
2019/04/12 14:40:28;;;;;;;4.9;4.4;;;;;;;24.23;22.91309;1004.931;;;;
2019/04/12 14:43:10;;;;;;;5.8;4.8;;;;;;;24.22;22.94824;1004.929;;;;
2019/04/12 14:46:21;;;;;;;5.1;4.6;;;;;;;24.23;23.05469;1004.786;;;;
2019/04/12 14:48:08;;;;;;;5.5;4.5;;;;;;;24.22;23.03125;1004.915;;;;
2019/04/12 14:50:36;;;;;;;5.7;4.6;;;;;;;24.21;22.99512;1004.83;;;;
2019/04/12 14:53:07;;;;;;;5;4.5;;;;;;;24.19;22.9707;1004.83;;;;
2019/04/12 14:55:38;;;;;;;4.9;4.4;;;;;;;24.18;23.07617;1004.814;;;;
2019/04/12 14:58:07;;;;;;;6.3;5.1;;;;;;;24.16;22.98047;1004.781;;;;
2019/04/12 15:00:40;;;;;;;5.4;4.9;;;;;;;24.16;22.9209;1004.728;;;;
2019/04/12 15:03:09;;;;;;;5.4;4.8;;;;;;;24.13;23.01465;1004.762;;;;